sensor_id;sensor_type;location;lat;lon;timestamp;temperature;humidity
24260;DHT22;12384;48.112;18.418;2023-04-15T00:01:08;5.20;99.90
24260;DHT22;12384;48.112;18.418;2023-04-15T00:03:39;5.20;99.90
24260;DHT22;12384;48.112;18.418;2023-04-15T00:06:08;5.20;99.90
24260;DHT22;12384;48.112;18.418;2023-04-15T00:08:36;5.20;99.90
24260;DHT22;12384;48.112;18.418;2023-04-15T00:11:05;5.20;99.90
24260;DHT22;12384;48.112;18.418;2023-04-15T00:13:33;5.20;99.90
24260;DHT22;12384;48.112;18.418;2023-04-15T00:16:02;5.20;99.90
24260;DHT22;12384;48.112;18.418;2023-04-15T00:18:30;5.20;99.90
24260;DHT22;12384;48.112;18.418;2023-04-15T00:21:00;5.30;99.90
24260;DHT22;12384;48.112;18.418;2023-04-15T00:23:29;5.20;99.90
24260;DHT22;12384;48.112;18.418;2023-04-15T00:25:57;5.30;99.90
24260;DHT22;12384;48.112;18.418;2023-04-15T00:28:25;5.30;99.90
24260;DHT22;12384;48.112;18.418;2023-04-15T00:30:54;5.30;99.90
24260;DHT22;12384;48.112;18.418;2023-04-15T00:33:22;5.30;99.90
24260;DHT22;12384;48.112;18.418;2023-04-15T00:35:51;5.30;99.90
24260;DHT22;12384;48.112;18.418;2023-04-15T00:38:21;5.30;99.90
24260;DHT22;12384;48.112;18.418;2023-04-15T00:40:49;5.30;99.90
24260;DHT22;12384;48.112;18.418;2023-04-15T00:43:18;5.40;99.90
24260;DHT22;12384;48.112;18.418;2023-04-15T00:45:46;5.40;99.90
24260;DHT22;12384;48.112;18.418;2023-04-15T00:48:15;5.40;99.90
24260;DHT22;12384;48.112;18.418;2023-04-15T00:50:43;5.40;99.90
24260;DHT22;12384;48.112;18.418;2023-04-15T00:53:12;5.40;99.90
24260;DHT22;12384;48.112;18.418;2023-04-15T00:55:42;5.40;99.90
24260;DHT22;12384;48.112;18.418;2023-04-15T00:58:10;5.50;99.90
24260;DHT22;12384;48.112;18.418;2023-04-15T01:00:41;5.50;99.90
24260;DHT22;12384;48.112;18.418;2023-04-15T01:03:10;5.50;99.90
24260;DHT22;12384;48.112;18.418;2023-04-15T01:05:39;5.50;99.90
24260;DHT22;12384;48.112;18.418;2023-04-15T01:08:07;5.50;99.90
24260;DHT22;12384;48.112;18.418;2023-04-15T01:10:36;5.60;99.90
24260;DHT22;12384;48.112;18.418;2023-04-15T01:13:06;5.50;99.90
24260;DHT22;12384;48.112;18.418;2023-04-15T01:15:35;5.60;99.90
24260;DHT22;12384;48.112;18.418;2023-04-15T01:18:04;5.50;99.90
24260;DHT22;12384;48.112;18.418;2023-04-15T01:20:36;5.60;99.90
24260;DHT22;12384;48.112;18.418;2023-04-15T01:23:06;5.60;99.90
24260;DHT22;12384;48.112;18.418;2023-04-15T01:25:35;5.60;99.90
24260;DHT22;12384;48.112;18.418;2023-04-15T01:28:04;5.60;99.90
24260;DHT22;12384;48.112;18.418;2023-04-15T01:30:33;5.60;99.90
24260;DHT22;12384;48.112;18.418;2023-04-15T01:33:02;5.60;99.90
24260;DHT22;12384;48.112;18.418;2023-04-15T01:35:30;5.60;99.90
24260;DHT22;12384;48.112;18.418;2023-04-15T01:38:04;5.60;99.90
24260;DHT22;12384;48.112;18.418;2023-04-15T01:40:35;5.60;99.90
24260;DHT22;12384;48.112;18.418;2023-04-15T01:43:03;5.60;99.90
24260;DHT22;12384;48.112;18.418;2023-04-15T01:45:32;5.70;99.90
24260;DHT22;12384;48.112;18.418;2023-04-15T01:48:03;5.70;99.90
24260;DHT22;12384;48.112;18.418;2023-04-15T01:50:32;5.70;99.90
24260;DHT22;12384;48.112;18.418;2023-04-15T01:53:00;5.70;99.90
24260;DHT22;12384;48.112;18.418;2023-04-15T01:55:28;5.70;99.90
24260;DHT22;12384;48.112;18.418;2023-04-15T01:57:59;5.70;99.90
24260;DHT22;12384;48.112;18.418;2023-04-15T02:00:27;5.70;99.90
24260;DHT22;12384;48.112;18.418;2023-04-15T02:02:58;5.70;99.90
24260;DHT22;12384;48.112;18.418;2023-04-15T02:05:27;5.70;99.90
24260;DHT22;12384;48.112;18.418;2023-04-15T02:07:56;5.70;99.90
24260;DHT22;12384;48.112;18.418;2023-04-15T02:10:25;5.80;99.90
24260;DHT22;12384;48.112;18.418;2023-04-15T02:12:53;5.80;99.90
24260;DHT22;12384;48.112;18.418;2023-04-15T02:15:28;5.80;99.90
24260;DHT22;12384;48.112;18.418;2023-04-15T02:17:56;5.80;99.90
24260;DHT22;12384;48.112;18.418;2023-04-15T02:20:27;5.80;99.90
24260;DHT22;12384;48.112;18.418;2023-04-15T02:22:57;5.80;99.90
24260;DHT22;12384;48.112;18.418;2023-04-15T02:25:26;5.80;99.90
24260;DHT22;12384;48.112;18.418;2023-04-15T02:27:56;5.80;99.90
24260;DHT22;12384;48.112;18.418;2023-04-15T02:30:25;5.80;99.90
24260;DHT22;12384;48.112;18.418;2023-04-15T02:32:55;5.80;99.90
24260;DHT22;12384;48.112;18.418;2023-04-15T02:35:24;5.90;99.90
24260;DHT22;12384;48.112;18.418;2023-04-15T02:37:53;5.90;99.90
24260;DHT22;12384;48.112;18.418;2023-04-15T02:40:21;5.90;99.90
24260;DHT22;12384;48.112;18.418;2023-04-15T02:42:50;5.90;99.90
24260;DHT22;12384;48.112;18.418;2023-04-15T02:45:19;5.90;99.90
24260;DHT22;12384;48.112;18.418;2023-04-15T02:47:50;5.90;99.90
24260;DHT22;12384;48.112;18.418;2023-04-15T02:50:20;5.90;99.90
24260;DHT22;12384;48.112;18.418;2023-04-15T02:52:49;5.90;99.90
24260;DHT22;12384;48.112;18.418;2023-04-15T02:55:18;5.90;99.90
24260;DHT22;12384;48.112;18.418;2023-04-15T02:57:47;5.90;99.90
24260;DHT22;12384;48.112;18.418;2023-04-15T03:00:16;5.90;99.90
24260;DHT22;12384;48.112;18.418;2023-04-15T03:02:46;5.90;99.90
24260;DHT22;12384;48.112;18.418;2023-04-15T03:05:20;6.00;99.90
24260;DHT22;12384;48.112;18.418;2023-04-15T03:07:50;6.00;99.90
24260;DHT22;12384;48.112;18.418;2023-04-15T03:10:20;6.00;99.90
24260;DHT22;12384;48.112;18.418;2023-04-15T03:12:49;6.00;99.90
24260;DHT22;12384;48.112;18.418;2023-04-15T03:15:20;6.00;99.90
24260;DHT22;12384;48.112;18.418;2023-04-15T03:17:51;5.90;99.90
24260;DHT22;12384;48.112;18.418;2023-04-15T03:20:21;5.90;99.90
24260;DHT22;12384;48.112;18.418;2023-04-15T03:22:50;5.90;99.90
24260;DHT22;12384;48.112;18.418;2023-04-15T03:25:21;5.90;99.90
24260;DHT22;12384;48.112;18.418;2023-04-15T03:27:49;6.00;99.90
24260;DHT22;12384;48.112;18.418;2023-04-15T03:30:18;6.00;99.90
24260;DHT22;12384;48.112;18.418;2023-04-15T03:32:46;6.00;99.90
24260;DHT22;12384;48.112;18.418;2023-04-15T03:35:15;6.00;99.90
24260;DHT22;12384;48.112;18.418;2023-04-15T03:37:45;6.00;99.90
24260;DHT22;12384;48.112;18.418;2023-04-15T03:40:15;6.00;99.90
24260;DHT22;12384;48.112;18.418;2023-04-15T03:42:43;6.00;99.90
24260;DHT22;12384;48.112;18.418;2023-04-15T03:45:12;5.90;99.90
24260;DHT22;12384;48.112;18.418;2023-04-15T03:47:40;5.90;99.90
24260;DHT22;12384;48.112;18.418;2023-04-15T03:50:09;5.80;99.90
24260;DHT22;12384;48.112;18.418;2023-04-15T03:52:38;5.80;99.90
24260;DHT22;12384;48.112;18.418;2023-04-15T03:55:08;5.80;99.90
24260;DHT22;12384;48.112;18.418;2023-04-15T03:57:36;5.80;99.90
24260;DHT22;12384;48.112;18.418;2023-04-15T04:00:08;5.70;99.90
24260;DHT22;12384;48.112;18.418;2023-04-15T04:02:40;5.70;99.90
24260;DHT22;12384;48.112;18.418;2023-04-15T04:05:08;5.70;99.90
24260;DHT22;12384;48.112;18.418;2023-04-15T04:07:37;5.70;99.90
24260;DHT22;12384;48.112;18.418;2023-04-15T04:10:07;5.80;99.90
24260;DHT22;12384;48.112;18.418;2023-04-15T04:12:36;5.70;99.90
24260;DHT22;12384;48.112;18.418;2023-04-15T04:15:05;5.70;99.90
24260;DHT22;12384;48.112;18.418;2023-04-15T04:17:34;5.70;99.90
24260;DHT22;12384;48.112;18.418;2023-04-15T04:20:02;5.80;99.90
24260;DHT22;12384;48.112;18.418;2023-04-15T04:22:37;5.80;99.90
24260;DHT22;12384;48.112;18.418;2023-04-15T04:25:08;5.80;99.90
24260;DHT22;12384;48.112;18.418;2023-04-15T04:27:37;5.80;99.90
24260;DHT22;12384;48.112;18.418;2023-04-15T04:30:06;5.90;99.90
24260;DHT22;12384;48.112;18.418;2023-04-15T04:32:35;5.90;99.90
24260;DHT22;12384;48.112;18.418;2023-04-15T04:35:04;5.90;99.90
24260;DHT22;12384;48.112;18.418;2023-04-15T04:37:33;6.00;99.90
24260;DHT22;12384;48.112;18.418;2023-04-15T04:40:02;6.00;99.90
24260;DHT22;12384;48.112;18.418;2023-04-15T04:42:32;6.10;99.90
24260;DHT22;12384;48.112;18.418;2023-04-15T04:45:02;6.10;99.90
24260;DHT22;12384;48.112;18.418;2023-04-15T04:47:30;6.20;99.90
24260;DHT22;12384;48.112;18.418;2023-04-15T04:49:59;6.20;99.90
24260;DHT22;12384;48.112;18.418;2023-04-15T04:52:27;6.30;99.90
24260;DHT22;12384;48.112;18.418;2023-04-15T04:54:56;6.30;99.90
24260;DHT22;12384;48.112;18.418;2023-04-15T04:57:24;6.40;99.90
24260;DHT22;12384;48.112;18.418;2023-04-15T04:59:54;6.40;99.90
24260;DHT22;12384;48.112;18.418;2023-04-15T05:02:22;6.40;99.90
24260;DHT22;12384;48.112;18.418;2023-04-15T05:04:53;6.50;99.90
24260;DHT22;12384;48.112;18.418;2023-04-15T05:07:22;6.50;99.90
24260;DHT22;12384;48.112;18.418;2023-04-15T05:09:51;6.60;99.90
24260;DHT22;12384;48.112;18.418;2023-04-15T05:12:20;6.60;99.90
24260;DHT22;12384;48.112;18.418;2023-04-15T05:14:48;6.70;99.90
24260;DHT22;12384;48.112;18.418;2023-04-15T05:17:18;6.70;99.90
24260;DHT22;12384;48.112;18.418;2023-04-15T05:19:46;6.80;99.90
24260;DHT22;12384;48.112;18.418;2023-04-15T05:22:15;6.90;99.90
24260;DHT22;12384;48.112;18.418;2023-04-15T05:24:43;7.00;99.90
24260;DHT22;12384;48.112;18.418;2023-04-15T05:27:11;7.00;99.90
24260;DHT22;12384;48.112;18.418;2023-04-15T05:29:40;7.10;99.90
24260;DHT22;12384;48.112;18.418;2023-04-15T05:32:08;7.20;99.90
24260;DHT22;12384;48.112;18.418;2023-04-15T05:34:38;7.30;99.90
24260;DHT22;12384;48.112;18.418;2023-04-15T05:37:07;7.40;99.90
24260;DHT22;12384;48.112;18.418;2023-04-15T05:39:36;7.40;99.90
24260;DHT22;12384;48.112;18.418;2023-04-15T05:42:04;7.50;99.90
24260;DHT22;12384;48.112;18.418;2023-04-15T05:44:33;7.60;99.90
24260;DHT22;12384;48.112;18.418;2023-04-15T05:47:02;7.70;99.90
24260;DHT22;12384;48.112;18.418;2023-04-15T05:49:31;7.70;99.90
24260;DHT22;12384;48.112;18.418;2023-04-15T05:52:01;7.80;99.90
24260;DHT22;12384;48.112;18.418;2023-04-15T05:54:30;7.80;99.90
24260;DHT22;12384;48.112;18.418;2023-04-15T05:56:58;7.80;99.90
24260;DHT22;12384;48.112;18.418;2023-04-15T05:59:27;7.80;99.90
24260;DHT22;12384;48.112;18.418;2023-04-15T06:01:56;7.80;99.90
24260;DHT22;12384;48.112;18.418;2023-04-15T06:04:24;7.90;99.90
24260;DHT22;12384;48.112;18.418;2023-04-15T06:06:53;7.90;99.90
24260;DHT22;12384;48.112;18.418;2023-04-15T06:09:23;7.90;99.90
24260;DHT22;12384;48.112;18.418;2023-04-15T06:11:52;7.90;99.90
24260;DHT22;12384;48.112;18.418;2023-04-15T06:14:20;8.00;99.90
24260;DHT22;12384;48.112;18.418;2023-04-15T06:16:49;8.00;99.90
24260;DHT22;12384;48.112;18.418;2023-04-15T06:19:17;8.00;99.90
24260;DHT22;12384;48.112;18.418;2023-04-15T06:21:46;8.10;99.90
24260;DHT22;12384;48.112;18.418;2023-04-15T06:24:14;8.20;99.90
24260;DHT22;12384;48.112;18.418;2023-04-15T06:26:44;8.30;99.90
24260;DHT22;12384;48.112;18.418;2023-04-15T06:29:13;8.40;99.90
24260;DHT22;12384;48.112;18.418;2023-04-15T06:31:41;8.40;99.90
24260;DHT22;12384;48.112;18.418;2023-04-15T06:34:10;8.60;99.90
24260;DHT22;12384;48.112;18.418;2023-04-15T06:36:38;8.70;99.90
24260;DHT22;12384;48.112;18.418;2023-04-15T06:39:07;8.80;99.90
24260;DHT22;12384;48.112;18.418;2023-04-15T06:41:35;8.90;99.90
24260;DHT22;12384;48.112;18.418;2023-04-15T06:44:05;8.90;99.90
24260;DHT22;12384;48.112;18.418;2023-04-15T06:46:34;8.90;99.90
24260;DHT22;12384;48.112;18.418;2023-04-15T06:49:02;9.00;99.90
24260;DHT22;12384;48.112;18.418;2023-04-15T06:51:31;9.00;99.90
24260;DHT22;12384;48.112;18.418;2023-04-15T06:54:00;9.00;99.90
24260;DHT22;12384;48.112;18.418;2023-04-15T06:56:28;9.10;99.90
24260;DHT22;12384;48.112;18.418;2023-04-15T06:58:57;9.20;99.90
24260;DHT22;12384;48.112;18.418;2023-04-15T07:01:27;9.20;99.90
24260;DHT22;12384;48.112;18.418;2023-04-15T07:03:56;9.30;99.90
24260;DHT22;12384;48.112;18.418;2023-04-15T07:06:24;9.30;99.90
24260;DHT22;12384;48.112;18.418;2023-04-15T07:08:53;9.40;99.90
24260;DHT22;12384;48.112;18.418;2023-04-15T07:11:25;9.40;99.90
24260;DHT22;12384;48.112;18.418;2023-04-15T07:13:53;9.50;99.90
24260;DHT22;12384;48.112;18.418;2023-04-15T07:16:22;9.50;99.90
24260;DHT22;12384;48.112;18.418;2023-04-15T07:18:51;9.50;99.90
24260;DHT22;12384;48.112;18.418;2023-04-15T07:21:20;9.60;99.90
24260;DHT22;12384;48.112;18.418;2023-04-15T07:23:48;9.70;99.90
24260;DHT22;12384;48.112;18.418;2023-04-15T07:26:17;9.70;99.90
24260;DHT22;12384;48.112;18.418;2023-04-15T07:28:45;9.90;99.90
24260;DHT22;12384;48.112;18.418;2023-04-15T07:31:14;10.00;99.90
24260;DHT22;12384;48.112;18.418;2023-04-15T07:33:43;10.10;99.90
24260;DHT22;12384;48.112;18.418;2023-04-15T07:36:13;10.30;99.90
24260;DHT22;12384;48.112;18.418;2023-04-15T07:38:42;10.40;99.90
24260;DHT22;12384;48.112;18.418;2023-04-15T07:41:11;10.50;99.90
24260;DHT22;12384;48.112;18.418;2023-04-15T07:43:40;10.70;99.90
24260;DHT22;12384;48.112;18.418;2023-04-15T07:46:09;10.80;95.80
24260;DHT22;12384;48.112;18.418;2023-04-15T07:48:37;11.10;99.90
24260;DHT22;12384;48.112;18.418;2023-04-15T07:51:06;11.30;95.50
24260;DHT22;12384;48.112;18.418;2023-04-15T07:53:36;11.50;93.40
24260;DHT22;12384;48.112;18.418;2023-04-15T07:56:04;11.70;92.20
24260;DHT22;12384;48.112;18.418;2023-04-15T07:58:33;11.90;86.90
24260;DHT22;12384;48.112;18.418;2023-04-15T08:01:04;12.10;90.10
24260;DHT22;12384;48.112;18.418;2023-04-15T08:03:32;12.30;89.30
24260;DHT22;12384;48.112;18.418;2023-04-15T08:06:01;12.40;82.80
24260;DHT22;12384;48.112;18.418;2023-04-15T08:08:30;12.70;85.40
24260;DHT22;12384;48.112;18.418;2023-04-15T08:11:00;13.00;86.30
24260;DHT22;12384;48.112;18.418;2023-04-15T08:13:28;13.20;78.50
24260;DHT22;12384;48.112;18.418;2023-04-15T08:16:12;13.30;76.00
24260;DHT22;12384;48.112;18.418;2023-04-15T08:18:41;13.50;72.80
24260;DHT22;12384;48.112;18.418;2023-04-15T08:21:09;13.70;72.50
24260;DHT22;12384;48.112;18.418;2023-04-15T08:23:38;13.80;69.20
24260;DHT22;12384;48.112;18.418;2023-04-15T08:26:08;14.00;68.30
24260;DHT22;12384;48.112;18.418;2023-04-15T08:28:37;14.10;68.30
24260;DHT22;12384;48.112;18.418;2023-04-15T08:31:06;14.20;62.50
24260;DHT22;12384;48.112;18.418;2023-04-15T08:33:35;14.40;63.80
24260;DHT22;12384;48.112;18.418;2023-04-15T08:36:04;14.50;62.60
24260;DHT22;12384;48.112;18.418;2023-04-15T08:38:33;14.50;62.40
24260;DHT22;12384;48.112;18.418;2023-04-15T08:41:06;14.50;61.20
24260;DHT22;12384;48.112;18.418;2023-04-15T08:43:45;14.50;61.80
24260;DHT22;12384;48.112;18.418;2023-04-15T08:46:15;14.50;59.30
24260;DHT22;12384;48.112;18.418;2023-04-15T08:48:45;14.40;58.60
24260;DHT22;12384;48.112;18.418;2023-04-15T08:51:15;14.20;57.90
24260;DHT22;12384;48.112;18.418;2023-04-15T08:53:44;14.00;57.40
24260;DHT22;12384;48.112;18.418;2023-04-15T08:56:14;13.80;57.50
24260;DHT22;12384;48.112;18.418;2023-04-15T08:58:45;13.60;56.50
24260;DHT22;12384;48.112;18.418;2023-04-15T09:01:15;13.40;56.50
24260;DHT22;12384;48.112;18.418;2023-04-15T09:03:43;13.30;57.70
24260;DHT22;12384;48.112;18.418;2023-04-15T09:06:14;13.20;57.90
24260;DHT22;12384;48.112;18.418;2023-04-15T09:08:43;13.10;57.50
24260;DHT22;12384;48.112;18.418;2023-04-15T09:11:12;13.00;57.70
24260;DHT22;12384;48.112;18.418;2023-04-15T09:13:41;13.00;57.70
24260;DHT22;12384;48.112;18.418;2023-04-15T09:16:10;13.00;57.80
24260;DHT22;12384;48.112;18.418;2023-04-15T09:18:39;13.00;58.40
24260;DHT22;12384;48.112;18.418;2023-04-15T09:21:09;13.20;58.10
24260;DHT22;12384;48.112;18.418;2023-04-15T09:23:40;13.40;58.80
24260;DHT22;12384;48.112;18.418;2023-04-15T09:26:09;13.50;57.20
24260;DHT22;12384;48.112;18.418;2023-04-15T09:28:41;13.50;56.90
24260;DHT22;12384;48.112;18.418;2023-04-15T09:31:11;13.50;55.80
24260;DHT22;12384;48.112;18.418;2023-04-15T09:33:54;13.40;55.20
24260;DHT22;12384;48.112;18.418;2023-04-15T09:36:23;13.30;55.40
24260;DHT22;12384;48.112;18.418;2023-04-15T09:38:56;13.30;55.50
24260;DHT22;12384;48.112;18.418;2023-04-15T09:41:25;13.20;55.80
24260;DHT22;12384;48.112;18.418;2023-04-15T09:43:54;13.20;55.90
24260;DHT22;12384;48.112;18.418;2023-04-15T09:46:42;13.20;55.90
24260;DHT22;12384;48.112;18.418;2023-04-15T09:49:11;13.20;55.70
24260;DHT22;12384;48.112;18.418;2023-04-15T09:51:40;13.10;55.40
24260;DHT22;12384;48.112;18.418;2023-04-15T09:54:24;13.10;55.90
24260;DHT22;12384;48.112;18.418;2023-04-15T09:56:52;13.20;56.50
24260;DHT22;12384;48.112;18.418;2023-04-15T09:59:21;13.40;57.40
24260;DHT22;12384;48.112;18.418;2023-04-15T10:01:51;13.70;56.30
24260;DHT22;12384;48.112;18.418;2023-04-15T10:04:20;13.90;56.30
24260;DHT22;12384;48.112;18.418;2023-04-15T10:06:48;14.00;55.70
24260;DHT22;12384;48.112;18.418;2023-04-15T10:09:18;14.10;55.40
24260;DHT22;12384;48.112;18.418;2023-04-15T10:11:47;14.10;54.50
24260;DHT22;12384;48.112;18.418;2023-04-15T10:14:18;14.10;54.50
24260;DHT22;12384;48.112;18.418;2023-04-15T10:16:48;14.00;53.90
24260;DHT22;12384;48.112;18.418;2023-04-15T10:19:21;14.00;54.10
24260;DHT22;12384;48.112;18.418;2023-04-15T10:21:52;14.00;54.00
24260;DHT22;12384;48.112;18.418;2023-04-15T10:24:22;13.80;52.90
24260;DHT22;12384;48.112;18.418;2023-04-15T10:26:51;13.70;53.20
24260;DHT22;12384;48.112;18.418;2023-04-15T10:29:20;13.60;53.00
24260;DHT22;12384;48.112;18.418;2023-04-15T10:31:48;13.50;53.20
24260;DHT22;12384;48.112;18.418;2023-04-15T10:34:19;13.30;53.40
24260;DHT22;12384;48.112;18.418;2023-04-15T10:36:48;13.30;53.70
24260;DHT22;12384;48.112;18.418;2023-04-15T10:39:41;13.20;54.10
24260;DHT22;12384;48.112;18.418;2023-04-15T10:42:12;13.10;53.90
24260;DHT22;12384;48.112;18.418;2023-04-15T10:44:42;13.00;54.10
24260;DHT22;12384;48.112;18.418;2023-04-15T10:47:12;12.90;54.50
24260;DHT22;12384;48.112;18.418;2023-04-15T10:49:47;12.90;55.00
24260;DHT22;12384;48.112;18.418;2023-04-15T10:52:20;13.00;55.30
24260;DHT22;12384;48.112;18.418;2023-04-15T10:54:49;13.00;55.40
24260;DHT22;12384;48.112;18.418;2023-04-15T10:57:33;13.10;55.50
24260;DHT22;12384;48.112;18.418;2023-04-15T11:00:10;13.10;55.50
24260;DHT22;12384;48.112;18.418;2023-04-15T11:02:42;13.10;54.90
24260;DHT22;12384;48.112;18.418;2023-04-15T11:05:13;13.10;54.70
24260;DHT22;12384;48.112;18.418;2023-04-15T11:07:52;13.10;54.90
24260;DHT22;12384;48.112;18.418;2023-04-15T11:10:51;13.10;54.70
24260;DHT22;12384;48.112;18.418;2023-04-15T11:13:22;13.10;54.60
24260;DHT22;12384;48.112;18.418;2023-04-15T11:15:58;13.20;54.70
24260;DHT22;12384;48.112;18.418;2023-04-15T11:18:30;13.20;54.30
24260;DHT22;12384;48.112;18.418;2023-04-15T11:21:02;13.20;53.90
24260;DHT22;12384;48.112;18.418;2023-04-15T11:23:33;13.20;54.10
24260;DHT22;12384;48.112;18.418;2023-04-15T11:26:04;13.10;53.90
24260;DHT22;12384;48.112;18.418;2023-04-15T11:28:37;13.00;54.00
24260;DHT22;12384;48.112;18.418;2023-04-15T11:31:08;12.80;54.40
24260;DHT22;12384;48.112;18.418;2023-04-15T11:33:44;12.70;54.60
24260;DHT22;12384;48.112;18.418;2023-04-15T11:36:14;12.60;54.80
24260;DHT22;12384;48.112;18.418;2023-04-15T11:38:45;12.50;55.30
24260;DHT22;12384;48.112;18.418;2023-04-15T11:41:14;12.50;55.70
24260;DHT22;12384;48.112;18.418;2023-04-15T11:43:42;12.50;56.10
24260;DHT22;12384;48.112;18.418;2023-04-15T11:46:11;12.50;56.60
24260;DHT22;12384;48.112;18.418;2023-04-15T11:48:42;12.40;56.60
24260;DHT22;12384;48.112;18.418;2023-04-15T11:51:13;12.40;56.60
24260;DHT22;12384;48.112;18.418;2023-04-15T11:53:43;12.50;56.80
24260;DHT22;12384;48.112;18.418;2023-04-15T11:56:17;12.60;56.80
24260;DHT22;12384;48.112;18.418;2023-04-15T11:58:47;12.80;57.40
24260;DHT22;12384;48.112;18.418;2023-04-15T12:01:17;13.10;58.00
24260;DHT22;12384;48.112;18.418;2023-04-15T12:03:46;13.60;58.90
24260;DHT22;12384;48.112;18.418;2023-04-15T12:06:19;14.00;55.90
24260;DHT22;12384;48.112;18.418;2023-04-15T12:08:59;14.30;55.60
24260;DHT22;12384;48.112;18.418;2023-04-15T12:11:33;14.50;54.50
24260;DHT22;12384;48.112;18.418;2023-04-15T12:14:05;14.50;53.30
24260;DHT22;12384;48.112;18.418;2023-04-15T12:16:35;14.30;53.50
24260;DHT22;12384;48.112;18.418;2023-04-15T12:19:17;14.00;53.60
24260;DHT22;12384;48.112;18.418;2023-04-15T12:21:52;13.80;54.10
24260;DHT22;12384;48.112;18.418;2023-04-15T12:24:21;13.60;54.80
24260;DHT22;12384;48.112;18.418;2023-04-15T12:26:51;13.50;55.10
24260;DHT22;12384;48.112;18.418;2023-04-15T12:29:23;13.50;55.60
24260;DHT22;12384;48.112;18.418;2023-04-15T12:31:54;13.50;55.60
24260;DHT22;12384;48.112;18.418;2023-04-15T12:34:28;13.70;56.50
24260;DHT22;12384;48.112;18.418;2023-04-15T12:37:02;14.00;56.50
24260;DHT22;12384;48.112;18.418;2023-04-15T12:39:34;14.10;54.90
24260;DHT22;12384;48.112;18.418;2023-04-15T12:42:03;14.30;55.00
24260;DHT22;12384;48.112;18.418;2023-04-15T12:44:32;14.40;54.50
24260;DHT22;12384;48.112;18.418;2023-04-15T12:47:01;14.50;53.90
24260;DHT22;12384;48.112;18.418;2023-04-15T12:49:30;14.50;53.80
24260;DHT22;12384;48.112;18.418;2023-04-15T12:52:01;14.50;53.60
24260;DHT22;12384;48.112;18.418;2023-04-15T12:54:30;14.40;53.30
24260;DHT22;12384;48.112;18.418;2023-04-15T12:56:59;14.20;53.80
24260;DHT22;12384;48.112;18.418;2023-04-15T12:59:32;14.20;53.40
24260;DHT22;12384;48.112;18.418;2023-04-15T13:02:01;14.00;53.60
24260;DHT22;12384;48.112;18.418;2023-04-15T13:04:30;14.00;53.70
24260;DHT22;12384;48.112;18.418;2023-04-15T13:07:00;13.90;54.10
24260;DHT22;12384;48.112;18.418;2023-04-15T13:09:29;13.80;54.30
24260;DHT22;12384;48.112;18.418;2023-04-15T13:12:00;13.80;54.30
24260;DHT22;12384;48.112;18.418;2023-04-15T13:14:28;13.80;54.40
24260;DHT22;12384;48.112;18.418;2023-04-15T13:16:57;13.70;54.10
24260;DHT22;12384;48.112;18.418;2023-04-15T13:19:26;13.70;54.10
24260;DHT22;12384;48.112;18.418;2023-04-15T13:21:55;13.60;54.10
24260;DHT22;12384;48.112;18.418;2023-04-15T13:24:24;13.60;54.40
24260;DHT22;12384;48.112;18.418;2023-04-15T13:26:53;13.50;54.60
24260;DHT22;12384;48.112;18.418;2023-04-15T13:29:25;13.50;54.50
24260;DHT22;12384;48.112;18.418;2023-04-15T13:31:54;13.40;55.10
24260;DHT22;12384;48.112;18.418;2023-04-15T13:34:23;13.40;54.70
24260;DHT22;12384;48.112;18.418;2023-04-15T13:36:51;13.50;55.00
24260;DHT22;12384;48.112;18.418;2023-04-15T13:39:20;13.50;54.80
24260;DHT22;12384;48.112;18.418;2023-04-15T13:41:50;13.60;54.90
24260;DHT22;12384;48.112;18.418;2023-04-15T13:44:19;13.60;54.40
24260;DHT22;12384;48.112;18.418;2023-04-15T13:46:48;13.60;54.20
24260;DHT22;12384;48.112;18.418;2023-04-15T13:49:16;13.80;55.10
24260;DHT22;12384;48.112;18.418;2023-04-15T13:51:45;13.90;55.50
24260;DHT22;12384;48.112;18.418;2023-04-15T13:54:13;14.10;55.50
24260;DHT22;12384;48.112;18.418;2023-04-15T13:56:42;14.20;54.90
24260;DHT22;12384;48.112;18.418;2023-04-15T13:59:12;14.30;54.90
24260;DHT22;12384;48.112;18.418;2023-04-15T14:01:40;14.30;54.10
24260;DHT22;12384;48.112;18.418;2023-04-15T14:04:09;14.20;54.00
24260;DHT22;12384;48.112;18.418;2023-04-15T14:06:38;14.20;53.60
24260;DHT22;12384;48.112;18.418;2023-04-15T14:09:07;14.00;53.10
24260;DHT22;12384;48.112;18.418;2023-04-15T14:11:37;13.80;53.10
24260;DHT22;12384;48.112;18.418;2023-04-15T14:14:06;13.60;53.30
24260;DHT22;12384;48.112;18.418;2023-04-15T14:16:36;13.40;53.40
24260;DHT22;12384;48.112;18.418;2023-04-15T14:19:04;13.20;53.60
24260;DHT22;12384;48.112;18.418;2023-04-15T14:21:33;13.00;53.90
24260;DHT22;12384;48.112;18.418;2023-04-15T14:24:02;12.80;54.40
24260;DHT22;12384;48.112;18.418;2023-04-15T14:26:30;12.70;54.60
24260;DHT22;12384;48.112;18.418;2023-04-15T14:28:59;12.60;55.00
24260;DHT22;12384;48.112;18.418;2023-04-15T14:31:28;12.60;55.30
24260;DHT22;12384;48.112;18.418;2023-04-15T14:33:57;12.50;55.50
24260;DHT22;12384;48.112;18.418;2023-04-15T14:36:26;12.60;56.10
24260;DHT22;12384;48.112;18.418;2023-04-15T14:38:54;12.60;56.40
24260;DHT22;12384;48.112;18.418;2023-04-15T14:41:23;12.60;56.70
24260;DHT22;12384;48.112;18.418;2023-04-15T14:43:52;12.70;56.90
24260;DHT22;12384;48.112;18.418;2023-04-15T14:46:20;12.80;57.00
24260;DHT22;12384;48.112;18.418;2023-04-15T14:48:49;12.90;57.00
24260;DHT22;12384;48.112;18.418;2023-04-15T14:51:19;13.00;57.10
24260;DHT22;12384;48.112;18.418;2023-04-15T14:53:47;13.00;57.00
24260;DHT22;12384;48.112;18.418;2023-04-15T14:56:15;13.10;57.20
24260;DHT22;12384;48.112;18.418;2023-04-15T14:58:44;13.10;57.10
24260;DHT22;12384;48.112;18.418;2023-04-15T15:01:12;13.20;57.20
24260;DHT22;12384;48.112;18.418;2023-04-15T15:03:41;13.20;57.40
24260;DHT22;12384;48.112;18.418;2023-04-15T15:06:10;13.40;57.50
24260;DHT22;12384;48.112;18.418;2023-04-15T15:08:39;13.50;57.60
24260;DHT22;12384;48.112;18.418;2023-04-15T15:11:08;13.60;57.50
24260;DHT22;12384;48.112;18.418;2023-04-15T15:13:36;13.70;57.60
24260;DHT22;12384;48.112;18.418;2023-04-15T15:16:05;13.80;57.50
24260;DHT22;12384;48.112;18.418;2023-04-15T15:18:34;14.00;57.50
24260;DHT22;12384;48.112;18.418;2023-04-15T15:21:03;14.00;56.90
24260;DHT22;12384;48.112;18.418;2023-04-15T15:23:32;14.00;56.50
24260;DHT22;12384;48.112;18.418;2023-04-15T15:26:01;14.00;56.20
24260;DHT22;12384;48.112;18.418;2023-04-15T15:28:30;13.90;55.70
24260;DHT22;12384;48.112;18.418;2023-04-15T15:30:58;13.80;55.60
24260;DHT22;12384;48.112;18.418;2023-04-15T15:33:27;13.70;55.60
24260;DHT22;12384;48.112;18.418;2023-04-15T15:35:56;13.60;55.70
24260;DHT22;12384;48.112;18.418;2023-04-15T15:38:25;13.50;55.50